Time;durP1;ratioP1;P1;durP2;ratioP2;P2;SDS_P1;SDS_P2;PMS_P1;PMS_P2;Temp;Humidity;BMP_temperature;BMP_pressure;BME280_temperature;BME280_humidity;BME280_pressure;Samples;Min_cycle;Max_cycle;Signal;HPM_P1;HPM_P2
2023/08/08 00:02:06;;;;;;;6.03;2.40;;;12.40;99.90;;;;;;5059873;28;20266;-82
2023/08/08 00:04:31;;;;;;;4.20;2.37;;;12.40;99.90;;;;;;5059502;28;20545;-82
2023/08/08 00:06:57;;;;;;;4.73;2.60;;;12.40;99.90;;;;;;5077948;28;20204;-83
2023/08/08 00:09:23;;;;;;;5.23;2.43;;;12.30;99.90;;;;;;5078290;28;20169;-83
2023/08/08 00:11:48;;;;;;;3.90;2.10;;;12.30;99.90;;;;;;5059552;28;20199;-82
2023/08/08 00:14:14;;;;;;;3.10;2.30;;;12.30;99.90;;;;;;5059413;28;20197;-82
2023/08/08 00:16:40;;;;;;;3.30;2.60;;;12.30;99.90;;;;;;5078011;28;20185;-82
2023/08/08 00:19:06;;;;;;;4.67;2.50;;;12.40;99.90;;;;;;5077831;28;20169;-82
2023/08/08 00:21:31;;;;;;;3.10;2.20;;;12.30;99.90;;;;;;5059624;28;20229;-83
2023/08/08 00:23:57;;;;;;;4.40;2.20;;;12.30;99.90;;;;;;5059500;28;20177;-83
2023/08/08 00:26:22;;;;;;;4.07;2.30;;;12.30;99.90;;;;;;5059451;28;20554;-82
2023/08/08 00:28:48;;;;;;;2.73;2.10;;;12.20;99.90;;;;;;5059856;28;20184;-82
2023/08/08 00:31:17;;;;;;;3.40;2.53;;;12.20;99.90;;;;;;5059649;28;20205;-85
2023/08/08 00:33:43;;;;;;;3.03;2.10;;;12.20;99.90;;;;;;5059225;28;20207;-82
2023/08/08 00:36:08;;;;;;;3.20;2.30;;;12.20;99.90;;;;;;5057991;28;20216;-82
2023/08/08 00:38:34;;;;;;;3.00;2.10;;;12.20;99.90;;;;;;5077534;28;20528;-83
2023/08/08 00:41:00;;;;;;;4.80;2.40;;;12.20;99.90;;;;;;5077994;28;20168;-82
2023/08/08 00:43:25;;;;;;;3.63;2.10;;;12.20;99.90;;;;;;5060434;28;20528;-82
2023/08/08 00:45:51;;;;;;;4.13;2.20;;;12.20;99.90;;;;;;5059678;28;20176;-83
2023/08/08 00:48:19;;;;;;;3.17;2.10;;;12.20;99.90;;;;;;5059725;28;20189;-82
2023/08/08 00:50:45;;;;;;;3.03;2.33;;;12.20;99.90;;;;;;5059916;28;20231;-85
2023/08/08 00:53:11;;;;;;;2.80;2.00;;;12.20;99.90;;;;;;5078224;28;20180;-83
2023/08/08 00:55:38;;;;;;;3.83;2.30;;;12.30;99.90;;;;;;5060141;28;20197;-82
2023/08/08 00:58:04;;;;;;;2.73;2.23;;;12.30;99.90;;;;;;5077477;28;20189;-83
2023/08/08 01:00:29;;;;;;;4.27;2.50;;;12.30;99.90;;;;;;5059746;28;20191;-83
2023/08/08 01:02:55;;;;;;;3.00;2.23;;;12.30;99.90;;;;;;5059598;28;20161;-82
2023/08/08 01:05:21;;;;;;;3.27;2.37;;;12.40;99.90;;;;;;5059449;28;20184;-87
2023/08/08 01:08:16;;;;;;;3.50;2.30;;;12.40;99.90;;;;;;5059243;28;20266;-82
2023/08/08 01:10:42;;;;;;;4.17;2.40;;;12.40;99.90;;;;;;5057169;28;20192;-83
2023/08/08 01:13:18;;;;;;;3.07;2.10;;;12.30;99.90;;;;;;5059155;28;20746;-83
2023/08/08 01:15:46;;;;;;;3.13;2.40;;;12.40;99.90;;;;;;5059322;28;20200;-83
2023/08/08 01:18:11;;;;;;;3.83;2.33;;;12.40;99.90;;;;;;5059305;28;20276;-86
2023/08/08 01:20:38;;;;;;;3.47;2.90;;;12.40;99.90;;;;;;5077271;28;20196;-82
2023/08/08 01:23:40;;;;;;;3.57;2.47;;;12.40;99.90;;;;;;5058999;28;20169;-87
2023/08/08 01:26:06;;;;;;;2.90;2.20;;;12.40;99.90;;;;;;5058406;28;20175;-82
2023/08/08 01:28:31;;;;;;;3.33;2.30;;;12.30;99.90;;;;;;5058086;28;20199;-82
2023/08/08 01:30:57;;;;;;;5.87;2.77;;;12.30;99.90;;;;;;5058582;28;20550;-82
2023/08/08 01:33:23;;;;;;;3.53;2.20;;;12.30;99.90;;;;;;5058526;28;20251;-82
2023/08/08 01:35:56;;;;;;;4.03;2.20;;;12.20;99.90;;;;;;5076173;28;20288;-82
2023/08/08 01:38:33;;;;;;;3.97;2.47;;;12.20;99.90;;;;;;5076486;28;20193;-83
2023/08/08 01:41:04;;;;;;;3.93;2.33;;;12.20;99.90;;;;;;5056767;28;20180;-85
2023/08/08 01:43:30;;;;;;;5.73;2.30;;;12.10;99.90;;;;;;5058178;28;20168;-82
2023/08/08 01:45:57;;;;;;;2.77;2.10;;;12.00;99.90;;;;;;5058381;28;20177;-81
2023/08/08 01:48:22;;;;;;;3.97;2.40;;;12.00;99.90;;;;;;5057697;28;20193;-85
2023/08/08 01:50:48;;;;;;;2.80;2.10;;;11.90;99.90;;;;;;5068556;28;20195;-82
2023/08/08 01:53:14;;;;;;;2.60;2.33;;;11.90;99.90;;;;;;5058013;28;20230;-82
2023/08/08 01:55:39;;;;;;;4.80;2.20;;;11.90;99.90;;;;;;5075949;28;20206;-82
2023/08/08 01:58:05;;;;;;;4.23;2.40;;;11.90;99.90;;;;;;5058585;28;20196;-86
2023/08/08 02:00:31;;;;;;;3.73;2.20;;;11.90;99.90;;;;;;5076185;28;20169;-84
2023/08/08 02:02:58;;;;;;;3.07;1.97;;;11.90;99.90;;;;;;5076585;28;20173;-82
2023/08/08 02:05:23;;;;;;;3.10;2.00;;;11.90;99.90;;;;;;5058769;28;20169;-83
2023/08/08 02:07:49;;;;;;;3.30;2.00;;;12.00;99.90;;;;;;5058105;28;20209;-84
2023/08/08 02:10:15;;;;;;;2.40;2.10;;;11.90;99.90;;;;;;5076308;28;20268;-82
2023/08/08 02:12:40;;;;;;;3.47;2.07;;;12.00;99.90;;;;;;5057946;28;20647;-82
2023/08/08 02:15:06;;;;;;;2.47;2.00;;;12.00;99.90;;;;;;5077965;28;20611;-85
2023/08/08 02:17:32;;;;;;;2.93;1.80;;;12.00;99.90;;;;;;5058429;28;20190;-85
2023/08/08 02:19:58;;;;;;;2.20;2.00;;;12.00;99.90;;;;;;5058257;28;20169;-83
2023/08/08 02:22:24;;;;;;;3.07;2.17;;;12.00;99.90;;;;;;5058337;28;20192;-83
2023/08/08 02:24:49;;;;;;;3.10;2.07;;;12.10;99.90;;;;;;5057571;28;20175;-82
2023/08/08 02:27:15;;;;;;;3.17;2.10;;;12.00;99.90;;;;;;5057109;28;20193;-82
2023/08/08 02:29:42;;;;;;;3.80;2.10;;;12.10;99.90;;;;;;5075151;28;20299;-82
2023/08/08 02:32:07;;;;;;;3.43;1.90;;;12.00;99.90;;;;;;5057064;28;20195;-82
2023/08/08 02:34:33;;;;;;;5.90;2.20;;;12.00;99.90;;;;;;5058251;28;20211;-82
2023/08/08 02:36:58;;;;;;;4.47;2.30;;;12.00;99.90;;;;;;5075114;28;20201;-83
2023/08/08 02:39:24;;;;;;;4.33;2.13;;;12.00;99.90;;;;;;5056305;28;20184;-83
2023/08/08 02:41:49;;;;;;;2.30;2.10;;;12.00;99.90;;;;;;5074785;28;20189;-82
2023/08/08 02:44:15;;;;;;;3.60;2.00;;;11.90;99.90;;;;;;5057089;28;20176;-82
2023/08/08 02:46:41;;;;;;;3.27;2.30;;;11.90;99.90;;;;;;5056817;28;20193;-82
2023/08/08 02:49:06;;;;;;;5.00;2.40;;;12.00;99.90;;;;;;5074808;28;20255;-82
2023/08/08 02:51:32;;;;;;;2.63;2.43;;;11.90;99.90;;;;;;5057084;28;20182;-82
2023/08/08 02:53:57;;;;;;;3.73;2.17;;;11.90;99.90;;;;;;5056529;28;20286;-82
2023/08/08 02:56:23;;;;;;;3.17;2.20;;;11.90;99.90;;;;;;5056500;28;20173;-82
2023/08/08 02:58:48;;;;;;;5.00;2.50;;;11.80;99.90;;;;;;5056214;28;20610;-82
2023/08/08 03:01:15;;;;;;;3.07;2.20;;;11.90;99.90;;;;;;5056235;28;20172;-82
2023/08/08 03:03:41;;;;;;;4.60;2.30;;;11.80;99.90;;;;;;5075220;28;20181;-82
2023/08/08 03:06:07;;;;;;;2.83;2.10;;;11.90;99.90;;;;;;5075065;28;20169;-82
2023/08/08 03:08:32;;;;;;;3.00;2.40;;;11.90;99.90;;;;;;5056667;28;20204;-82
2023/08/08 03:10:58;;;;;;;4.43;2.30;;;11.90;99.90;;;;;;5074745;28;20177;-82
2023/08/08 03:13:24;;;;;;;3.63;2.30;;;11.90;99.90;;;;;;5056874;28;20169;-81
2023/08/08 03:15:49;;;;;;;3.57;2.07;;;11.90;99.90;;;;;;5056431;28;20250;-82
2023/08/08 03:18:15;;;;;;;4.33;2.17;;;11.90;99.90;;;;;;5074710;28;20200;-82
2023/08/08 03:20:40;;;;;;;2.67;2.40;;;11.90;99.90;;;;;;5074231;28;20176;-82
2023/08/08 03:23:06;;;;;;;2.60;2.40;;;11.90;99.90;;;;;;5056789;28;20190;-82
2023/08/08 03:25:31;;;;;;;2.37;2.03;;;11.90;99.90;;;;;;5056707;28;20178;-82
2023/08/08 03:27:57;;;;;;;2.47;2.20;;;11.90;99.90;;;;;;5056342;28;20197;-81
2023/08/08 03:30:23;;;;;;;3.23;2.33;;;11.90;99.90;;;;;;5074351;28;20180;-84
2023/08/08 03:32:48;;;;;;;2.50;2.20;;;11.90;99.90;;;;;;5074666;28;20208;-81
2023/08/08 03:35:14;;;;;;;3.90;2.30;;;11.90;99.90;;;;;;5074474;28;20619;-82
2023/08/08 03:37:40;;;;;;;3.33;2.03;;;11.90;99.90;;;;;;5056287;28;20196;-82
2023/08/08 03:40:07;;;;;;;2.60;2.30;;;11.90;99.90;;;;;;5056569;28;20181;-82
2023/08/08 03:42:33;;;;;;;3.57;2.53;;;11.90;99.90;;;;;;5074728;28;20180;-82
2023/08/08 03:44:58;;;;;;;2.67;2.43;;;11.90;99.90;;;;;;5056677;28;20185;-82
2023/08/08 03:47:24;;;;;;;4.10;2.23;;;11.90;99.90;;;;;;5056317;28;20201;-82
2023/08/08 03:49:50;;;;;;;2.80;2.30;;;11.90;99.90;;;;;;5055591;28;20192;-82
2023/08/08 03:52:16;;;;;;;3.43;2.33;;;11.90;99.90;;;;;;5056130;28;20314;-82
2023/08/08 03:54:42;;;;;;;4.23;2.40;;;11.80;99.90;;;;;;5056241;28;20283;-82
2023/08/08 03:57:08;;;;;;;2.53;2.33;;;11.90;99.90;;;;;;5056218;28;20195;-82
2023/08/08 03:59:33;;;;;;;2.93;2.17;;;11.80;99.90;;;;;;5055985;28;20544;-82
2023/08/08 04:01:59;;;;;;;3.07;2.50;;;11.80;99.90;;;;;;5056387;28;20177;-81
2023/08/08 04:04:25;;;;;;;3.97;2.20;;;11.80;99.90;;;;;;5056166;28;20205;-82
2023/08/08 04:06:50;;;;;;;3.00;2.20;;;11.70;99.90;;;;;;5056506;28;20207;-82
2023/08/08 04:09:16;;;;;;;3.37;2.40;;;11.60;99.90;;;;;;5056163;28;20188;-82
2023/08/08 04:11:41;;;;;;;2.93;2.50;;;11.60;99.90;;;;;;5058598;28;20180;-82
2023/08/08 04:14:07;;;;;;;3.77;2.33;;;11.60;99.90;;;;;;5075050;28;20660;-82
2023/08/08 04:16:32;;;;;;;3.17;2.53;;;11.50;99.90;;;;;;5059887;28;20164;-83
2023/08/08 04:18:59;;;;;;;3.73;2.77;;;11.50;99.90;;;;;;5059632;28;20222;-82
2023/08/08 04:21:27;;;;;;;2.90;2.43;;;11.50;99.90;;;;;;5077395;28;20209;-81
2023/08/08 04:23:52;;;;;;;2.93;2.30;;;11.50;99.90;;;;;;5059621;28;20165;-82
2023/08/08 04:26:18;;;;;;;3.23;2.37;;;11.40;99.90;;;;;;5059450;28;20180;-82
2023/08/08 04:28:43;;;;;;;4.53;2.67;;;11.40;99.90;;;;;;5059618;28;20185;-82
2023/08/08 04:31:09;;;;;;;3.03;2.43;;;11.40;99.90;;;;;;5059270;28;20559;-84
2023/08/08 04:33:35;;;;;;;3.17;2.20;;;11.40;99.90;;;;;;5059577;28;20212;-82
2023/08/08 04:36:00;;;;;;;3.97;2.40;;;11.40;99.90;;;;;;5077497;28;20570;-82
2023/08/08 04:38:26;;;;;;;3.47;2.30;;;11.40;99.90;;;;;;5059988;28;20197;-82
2023/08/08 04:40:51;;;;;;;4.30;2.10;;;11.50;99.90;;;;;;5077161;28;20195;-82
2023/08/08 04:43:17;;;;;;;2.70;2.27;;;11.40;99.90;;;;;;5059340;28;20173;-81
2023/08/08 04:45:42;;;;;;;3.93;2.67;;;11.50;99.90;;;;;;5059278;28;20180;-83
2023/08/08 04:48:08;;;;;;;4.10;2.80;;;11.50;99.90;;;;;;5059575;28;20207;-82
2023/08/08 04:50:34;;;;;;;5.10;3.20;;;11.50;99.90;;;;;;5059480;28;20181;-82
2023/08/08 04:52:59;;;;;;;4.33;2.93;;;11.60;99.90;;;;;;5059216;28;20201;-82
2023/08/08 04:55:25;;;;;;;4.53;2.80;;;11.60;99.90;;;;;;5059647;28;20205;-82
2023/08/08 04:57:50;;;;;;;4.87;2.57;;;11.60;99.90;;;;;;5077816;28;20217;-82
2023/08/08 05:00:16;;;;;;;2.50;2.30;;;11.70;99.90;;;;;;5076791;28;20173;-82
2023/08/08 05:02:42;;;;;;;4.00;2.53;;;11.80;99.90;;;;;;5076144;28;20177;-82
2023/08/08 05:05:07;;;;;;;4.20;2.53;;;11.80;99.90;;;;;;5058336;28;20177;-82
2023/08/08 05:07:36;;;;;;;3.03;2.60;;;11.80;99.90;;;;;;5058072;28;20603;-82
2023/08/08 05:10:02;;;;;;;3.37;2.40;;;11.90;99.90;;;;;;5058236;28;20273;-82
2023/08/08 05:12:28;;;;;;;3.20;2.30;;;11.90;99.90;;;;;;5059065;28;20188;-82
2023/08/08 05:14:53;;;;;;;4.20;2.57;;;11.90;99.90;;;;;;5058605;28;20208;-82
2023/08/08 05:17:19;;;;;;;4.57;2.87;;;11.90;99.90;;;;;;5076542;28;20201;-81
2023/08/08 05:19:44;;;;;;;3.00;2.70;;;12.00;99.90;;;;;;5076060;28;20180;-83
2023/08/08 05:22:10;;;;;;;3.67;2.80;;;11.90;99.90;;;;;;5058089;28;20197;-81
2023/08/08 05:24:35;;;;;;;3.87;2.60;;;11.90;99.90;;;;;;5076395;28;20184;-82
2023/08/08 05:27:03;;;;;;;3.17;2.77;;;11.90;99.90;;;;;;5076374;28;20220;-82
2023/08/08 05:29:28;;;;;;;5.90;3.00;;;11.90;99.90;;;;;;5076073;28;20181;-82
2023/08/08 05:31:54;;;;;;;4.63;3.07;;;11.90;99.90;;;;;;5058380;28;20178;-82
2023/08/08 05:34:19;;;;;;;3.00;2.60;;;11.80;99.90;;;;;;5057445;28;20679;-81
2023/08/08 05:36:45;;;;;;;3.00;2.70;;;11.80;99.90;;;;;;5057424;28;20209;-81
2023/08/08 05:39:10;;;;;;;2.70;2.47;;;11.80;99.90;;;;;;5057797;28;20177;-82
2023/08/08 05:41:36;;;;;;;3.30;2.80;;;11.70;99.90;;;;;;5057842;28;20184;-81
2023/08/08 05:44:02;;;;;;;5.53;2.60;;;11.70;99.90;;;;;;5057688;28;20177;-81
2023/08/08 05:46:27;;;;;;;4.50;3.00;;;11.80;99.90;;;;;;5058335;28;20767;-82
2023/08/08 05:48:53;;;;;;;3.70;2.67;;;11.90;99.90;;;;;;5058145;28;20169;-82
2023/08/08 05:51:19;;;;;;;3.43;3.00;;;11.90;99.90;;;;;;5058416;28;20184;-82
2023/08/08 05:53:44;;;;;;;3.87;3.00;;;12.00;99.90;;;;;;5058136;28;20173;-82
2023/08/08 05:56:10;;;;;;;2.97;2.67;;;12.10;99.90;;;;;;5059277;28;20202;-83
2023/08/08 05:58:37;;;;;;;4.00;2.80;;;12.20;99.90;;;;;;5059040;28;20192;-83
2023/08/08 06:01:05;;;;;;;3.80;2.97;;;12.20;99.90;;;;;;5077537;28;20197;-82
2023/08/08 06:03:31;;;;;;;2.93;2.57;;;12.30;99.90;;;;;;5058404;28;20306;-82
2023/08/08 06:05:57;;;;;;;4.00;3.10;;;12.40;99.90;;;;;;5074255;28;20188;-83
2023/08/08 06:08:23;;;;;;;3.30;2.77;;;12.40;99.90;;;;;;5073808;28;20288;-82
2023/08/08 06:10:48;;;;;;;3.10;2.80;;;12.50;99.90;;;;;;5075358;28;20184;-82
2023/08/08 06:13:14;;;;;;;3.27;2.67;;;12.50;99.90;;;;;;5058186;28;20183;-82
2023/08/08 06:15:39;;;;;;;4.03;2.90;;;12.50;99.90;;;;;;5055655;28;20205;-81
2023/08/08 06:18:06;;;;;;;5.90;2.90;;;12.60;99.90;;;;;;5074150;28;20246;-81
2023/08/08 06:20:31;;;;;;;3.30;3.00;;;12.60;99.90;;;;;;5055428;28;20173;-81
2023/08/08 06:22:57;;;;;;;3.33;3.03;;;12.70;99.90;;;;;;5073225;28;20288;-82
2023/08/08 06:25:22;;;;;;;3.77;2.70;;;12.80;99.90;;;;;;5073747;28;20205;-82
2023/08/08 06:27:49;;;;;;;3.17;2.87;;;12.80;99.90;;;;;;5055618;28;20675;-82
2023/08/08 06:30:15;;;;;;;4.93;2.70;;;12.80;99.90;;;;;;5055779;28;20250;-83
2023/08/08 06:32:40;;;;;;;3.40;2.33;;;12.90;99.90;;;;;;5056412;28;20173;-84
2023/08/08 06:35:06;;;;;;;4.47;2.73;;;12.90;99.90;;;;;;5074261;28;20204;-84
2023/08/08 06:37:32;;;;;;;3.63;2.47;;;13.00;99.90;;;;;;5056629;28;20199;-84
2023/08/08 06:39:58;;;;;;;4.10;2.73;;;13.10;99.90;;;;;;5055459;28;20173;-83
2023/08/08 06:42:23;;;;;;;3.53;2.50;;;13.20;99.90;;;;;;5055536;28;20184;-83
2023/08/08 06:44:49;;;;;;;3.03;2.70;;;13.20;99.90;;;;;;5055797;28;20562;-83
2023/08/08 06:47:14;;;;;;;3.10;2.80;;;13.40;99.90;;;;;;5055878;28;20212;-84
2023/08/08 06:49:40;;;;;;;3.17;2.63;;;13.50;99.90;;;;;;5055256;28;20181;-83
2023/08/08 06:52:06;;;;;;;3.13;2.70;;;13.50;99.90;;;;;;5055855;28;20181;-83
2023/08/08 06:54:32;;;;;;;4.50;3.03;;;13.60;99.90;;;;;;5074236;28;20223;-83
2023/08/08 06:56:58;;;;;;;4.80;2.70;;;13.60;99.90;;;;;;5055577;28;20196;-83
2023/08/08 06:59:24;;;;;;;4.27;2.67;;;13.70;99.90;;;;;;5055990;28;20173;-83
2023/08/08 07:01:50;;;;;;;4.33;2.70;;;13.80;99.90;;;;;;5055307;28;20268;-83
2023/08/08 07:04:17;;;;;;;2.90;2.60;;;13.90;99.90;;;;;;5074167;28;20192;-82
2023/08/08 07:06:43;;;;;;;4.30;2.67;;;14.00;99.90;;;;;;5055219;28;20291;-83
2023/08/08 07:09:10;;;;;;;3.53;2.33;;;14.00;99.90;;;;;;5055816;28;20188;-83
2023/08/08 07:11:39;;;;;;;2.83;2.27;;;14.20;99.90;;;;;;5073865;28;20181;-83
2023/08/08 07:14:04;;;;;;;2.60;2.03;;;14.30;99.90;;;;;;5073835;28;20180;-84
2023/08/08 07:16:30;;;;;;;3.67;2.10;;;14.40;99.90;;;;;;5073493;28;20176;-84
2023/08/08 07:18:55;;;;;;;3.17;2.10;;;14.40;99.90;;;;;;5068729;28;20319;-83
2023/08/08 07:21:21;;;;;;;2.87;2.17;;;14.60;99.90;;;;;;5052725;28;20196;-83
2023/08/08 07:23:46;;;;;;;2.50;1.90;;;14.60;99.90;;;;;;5056870;28;20196;-81
2023/08/08 07:26:12;;;;;;;3.37;2.10;;;14.60;99.90;;;;;;5056332;28;20181;-83
2023/08/08 07:28:38;;;;;;;2.43;2.10;;;14.70;99.90;;;;;;5056261;28;20287;-83
2023/08/08 07:31:03;;;;;;;4.57;1.83;;;14.70;99.90;;;;;;5057395;28;20259;-83
2023/08/08 07:33:29;;;;;;;2.20;1.60;;;14.80;1.00;;;;;;5075337;28;20177;-83
2023/08/08 07:35:54;;;;;;;2.73;1.77;;;14.90;1.00;;;;;;5074858;28;20207;-83
2023/08/08 07:38:20;;;;;;;4.00;1.90;;;14.90;1.00;;;;;;5076589;28;20255;-84
2023/08/08 07:40:47;;;;;;;1.73;1.60;;;14.90;1.00;;;;;;5057341;28;20181;-84
2023/08/08 07:43:12;;;;;;;2.90;1.70;;;14.90;1.00;;;;;;5076346;28;20230;-84
2023/08/08 07:45:38;;;;;;;1.60;1.50;;;14.90;1.00;;;;;;5059914;28;20169;-84
2023/08/08 07:48:04;;;;;;;3.90;1.80;;;14.90;1.00;;;;;;5062071;28;20193;-84
2023/08/08 07:50:30;;;;;;;3.00;1.60;;;14.90;31.30;;;;;;5062917;28;20176;-85
2023/08/08 07:52:56;;;;;;;2.17;1.70;;;14.90;11.90;;;;;;5079338;28;20211;-85
2023/08/08 07:55:21;;;;;;;2.77;1.87;;;15.00;14.20;;;;;;5079230;28;20240;-86
2023/08/08 07:57:47;;;;;;;2.97;1.63;;;15.10;1.00;;;;;;5079208;28;20197;-85
2023/08/08 08:00:13;;;;;;;2.27;1.80;;;15.30;80.40;;;;;;5061349;28;20263;-85
2023/08/08 08:02:41;;;;;;;4.23;1.90;;;15.50;1.00;;;;;;5078851;28;20169;-85
2023/08/08 08:05:07;;;;;;;2.80;1.80;;;15.70;11.40;;;;;;5058891;28;20268;-84
2023/08/08 08:07:34;;;;;;;2.53;1.60;;;15.90;1.00;;;;;;5076630;28;20216;-85
2023/08/08 08:10:02;;;;;;;1.77;1.60;;;16.10;1.00;;;;;;5076738;28;20183;-85
2023/08/08 08:12:27;;;;;;;3.60;1.60;;;16.20;1.00;;;;;;5076730;28;20644;-84
2023/08/08 08:14:53;;;;;;;2.20;1.80;;;16.30;1.00;;;;;;5076733;28;20250;-85
2023/08/08 08:17:18;;;;;;;2.10;1.60;;;16.30;3.70;;;;;;5076830;28;20709;-86
2023/08/08 08:19:44;;;;;;;2.00;1.40;;;16.40;1.00;;;;;;5076372;28;20223;-84
2023/08/08 08:22:09;;;;;;;1.93;1.53;;;16.40;1.00;;;;;;5058361;28;20206;-85
2023/08/08 08:24:35;;;;;;;3.67;1.50;;;16.50;1.00;;;;;;5076875;28;20226;-83
2023/08/08 08:27:01;;;;;;;2.30;1.53;;;16.60;1.00;;;;;;5059040;28;20199;-86
2023/08/08 08:29:26;;;;;;;1.50;1.40;;;16.60;1.00;;;;;;5058221;28;20181;-84
2023/08/08 08:31:52;;;;;;;2.10;1.30;;;16.80;97.70;;;;;;5058669;28;20169;-85
2023/08/08 08:34:17;;;;;;;2.30;1.60;;;17.00;99.90;;;;;;5060349;28;20193;-85
2023/08/08 08:36:43;;;;;;;1.30;1.20;;;17.10;96.40;;;;;;5076353;28;20189;-84
2023/08/08 08:39:09;;;;;;;1.63;1.20;;;17.00;1.00;;;;;;5058565;28;20315;-85
2023/08/08 08:41:39;;;;;;;2.03;1.37;;;17.00;1.00;;;;;;5076059;28;20168;-85
2023/08/08 08:44:05;;;;;;;1.67;1.30;;;17.10;1.00;;;;;;5057985;28;20226;-85
2023/08/08 08:46:34;;;;;;;1.90;1.40;;;17.20;1.00;;;;;;5058605;28;20172;-85
2023/08/08 08:49:04;;;;;;;1.50;1.20;;;17.40;1.00;;;;;;5059708;28;20196;-85
2023/08/08 08:51:30;;;;;;;2.33;1.40;;;17.50;1.00;;;;;;5079161;28;20639;-85
2023/08/08 08:53:58;;;;;;;1.60;1.20;;;17.40;1.00;;;;;;5060332;28;20173;-85
2023/08/08 08:56:24;;;;;;;2.13;1.33;;;17.60;1.00;;;;;;5057564;28;20187;-84
2023/08/08 08:58:51;;;;;;;2.13;1.40;;;17.70;99.90;;;;;;5057376;28;20176;-85
2023/08/08 09:01:17;;;;;;;2.20;1.37;;;17.80;1.00;;;;;;5057774;28;20169;-86
2023/08/08 09:03:45;;;;;;;1.90;1.20;;;17.90;99.90;;;;;;5076141;28;20196;-84
2023/08/08 09:06:12;;;;;;;1.70;1.23;;;17.80;1.00;;;;;;5057578;28;20177;-85
2023/08/08 09:08:37;;;;;;;1.97;1.40;;;17.80;1.00;;;;;;5057724;28;20671;-85
2023/08/08 09:11:03;;;;;;;1.20;1.10;;;17.90;99.90;;;;;;5075740;28;20173;-85
2023/08/08 09:13:39;;;;;;;2.80;1.30;;;18.00;99.90;;;;;;5057456;28;20231;-85
2023/08/08 09:16:09;;;;;;;1.40;1.27;;;18.10;99.90;;;;;;5057319;28;20291;-85
2023/08/08 09:18:38;;;;;;;1.67;1.40;;;18.20;99.90;;;;;;5057468;28;20192;-85
2023/08/08 09:21:04;;;;;;;2.27;1.50;;;18.30;1.00;;;;;;5057201;28;20180;-84
2023/08/08 09:23:29;;;;;;;1.50;1.40;;;18.40;99.90;;;;;;5075581;28;20314;-84
2023/08/08 09:25:55;;;;;;;5.53;1.50;;;18.30;1.00;;;;;;5057547;28;20221;-85
2023/08/08 09:28:21;;;;;;;3.50;1.77;;;18.50;1.00;;;;;;5057888;28;20225;-83
2023/08/08 09:30:46;;;;;;;1.60;1.40;;;18.70;99.90;;;;;;5056640;28;20177;-83
2023/08/08 09:33:12;;;;;;;1.93;1.20;;;18.80;1.00;;;;;;5056297;28;20730;-83
2023/08/08 09:35:41;;;;;;;2.67;1.50;;;18.90;1.00;;;;;;5057863;28;20205;-84
2023/08/08 09:38:07;;;;;;;2.33;1.50;;;18.70;1.00;;;;;;5074586;28;20212;-83
2023/08/08 09:40:33;;;;;;;1.90;1.30;;;18.60;46.60;;;;;;5074500;28;20585;-83
2023/08/08 09:42:59;;;;;;;2.30;1.20;;;18.50;1.00;;;;;;5056907;28;20172;-82
2023/08/08 09:45:24;;;;;;;2.23;1.63;;;18.50;99.90;;;;;;5056394;28;20172;-83
2023/08/08 09:47:52;;;;;;;2.40;1.40;;;18.70;99.90;;;;;;5056511;28;20208;-85
2023/08/08 09:50:18;;;;;;;3.13;1.50;;;18.90;61.30;;;;;;5074461;28;20169;-84
2023/08/08 09:52:45;;;;;;;4.07;1.30;;;18.90;1.00;;;;;;5075096;28;20177;-84
2023/08/08 09:55:11;;;;;;;1.67;1.30;;;18.90;1.00;;;;;;5057192;28;20204;-85
2023/08/08 09:57:39;;;;;;;2.77;1.30;;;18.70;1.00;;;;;;5075771;28;20197;-84
2023/08/08 10:00:10;;;;;;;4.90;1.67;;;18.80;1.00;;;;;;5075828;28;20726;-84
2023/08/08 10:02:35;;;;;;;1.77;1.53;;;19.00;99.90;;;;;;5075700;28;20556;-83
2023/08/08 10:05:04;;;;;;;2.50;1.50;;;18.90;19.70;;;;;;5057164;28;20647;-83
2023/08/08 10:07:30;;;;;;;2.13;1.37;;;18.90;1.00;;;;;;5057074;28;20219;-81
2023/08/08 10:09:56;;;;;;;2.93;1.40;;;18.60;1.20;;;;;;5074859;28;20181;-83
2023/08/08 10:12:25;;;;;;;2.00;1.30;;;18.40;99.90;;;;;;5075351;28;20176;-83
2023/08/08 10:14:51;;;;;;;2.33;1.40;;;18.50;1.00;;;;;;5057109;28;20243;-82
2023/08/08 10:17:18;;;;;;;2.50;1.50;;;18.30;99.90;;;;;;5075196;28;20188;-82
2023/08/08 10:19:53;;;;;;;1.93;1.30;;;18.20;1.00;;;;;;5056545;28;20170;-83
2023/08/08 10:22:24;;;;;;;2.20;1.30;;;18.20;21.20;;;;;;5074812;28;20191;-82
2023/08/08 10:24:53;;;;;;;2.83;1.30;;;18.20;1.00;;;;;;5056424;28;20260;-82
2023/08/08 10:27:36;;;;;;;2.23;1.47;;;18.20;1.00;;;;;;5056918;28;20196;-84
2023/08/08 10:30:09;;;;;;;2.00;1.43;;;18.10;99.90;;;;;;5060447;28;20172;-84
2023/08/08 10:32:41;;;;;;;2.27;1.40;;;18.10;99.90;;;;;;5059728;28;20173;-83
2023/08/08 10:35:09;;;;;;;1.87;1.27;;;18.10;99.90;;;;;;5057319;28;20760;-83
2023/08/08 10:37:35;;;;;;;2.13;1.40;;;18.10;1.00;;;;;;5056741;28;20185;-82
2023/08/08 10:40:08;;;;;;;2.27;1.60;;;18.00;99.90;;;;;;5074352;28;20177;-83
2023/08/08 10:42:44;;;;;;;3.17;1.50;;;17.90;1.00;;;;;;5056083;28;20168;-82
2023/08/08 10:45:15;;;;;;;4.07;1.70;;;18.00;1.00;;;;;;5058284;28;20204;-83
2023/08/08 10:47:42;;;;;;;1.60;1.27;;;18.10;1.00;;;;;;5077039;28;20193;-83
2023/08/08 10:50:12;;;;;;;3.27;1.50;;;18.00;1.00;;;;;;5058181;28;20176;-83
2023/08/08 10:52:54;;;;;;;2.47;1.40;;;18.00;1.00;;;;;;5077296;28;20173;-83
2023/08/08 10:55:46;;;;;;;2.27;1.57;;;18.00;1.00;;;;;;5078235;28;20205;-84
2023/08/08 10:58:19;;;;;;;2.90;1.40;;;18.00;99.90;;;;;;5073200;28;20196;-84
2023/08/08 11:00:45;;;;;;;1.97;1.50;;;18.00;99.90;;;;;;5058946;28;20176;-81
2023/08/08 11:03:11;;;;;;;2.03;1.40;;;18.10;99.90;;;;;;5057820;28;20177;-80
2023/08/08 11:05:37;;;;;;;2.97;1.50;;;18.20;99.90;;;;;;5056834;28;20264;-80
2023/08/08 11:08:05;;;;;;;1.23;1.13;;;18.40;1.00;;;;;;5075853;28;20551;-80
2023/08/08 11:10:39;;;;;;;2.37;1.60;;;18.60;99.90;;;;;;5074681;28;20181;-82
2023/08/08 11:13:06;;;;;;;3.03;1.40;;;18.50;99.90;;;;;;5074940;28;20196;-82
2023/08/08 11:15:33;;;;;;;1.57;1.40;;;18.30;99.90;;;;;;5074109;28;20201;-83
2023/08/08 11:18:00;;;;;;;4.17;1.50;;;18.10;1.00;;;;;;5074494;28;20185;-82
2023/08/08 11:20:32;;;;;;;3.03;1.43;;;18.30;1.00;;;;;;5056664;28;20521;-83
2023/08/08 11:22:58;;;;;;;2.13;1.40;;;18.60;1.00;;;;;;5060340;28;20188;-83
2023/08/08 11:25:29;;;;;;;4.13;1.60;;;18.80;99.90;;;;;;5078067;28;20594;-83
2023/08/08 11:27:56;;;;;;;2.30;1.40;;;19.10;99.90;;;;;;5060250;28;20201;-83
2023/08/08 11:30:23;;;;;;;4.03;1.47;;;19.20;99.90;;;;;;5059921;28;20259;-83
2023/08/08 11:32:50;;;;;;;2.37;1.50;;;19.40;1.00;;;;;;5078009;28;20176;-84
2023/08/08 11:35:17;;;;;;;2.13;1.60;;;19.40;99.90;;;;;;5060094;28;20207;-82
2023/08/08 11:37:45;;;;;;;2.53;1.47;;;19.30;99.90;;;;;;5061237;28;20185;-83
2023/08/08 11:40:12;;;;;;;1.70;1.30;;;19.20;1.00;;;;;;5079569;28;20196;-84
2023/08/08 11:42:39;;;;;;;1.23;1.13;;;19.20;60.00;;;;;;5061279;28;20168;-83
2023/08/08 11:45:05;;;;;;;3.00;1.50;;;19.20;99.90;;;;;;5079643;28;20179;-83
2023/08/08 11:47:35;;;;;;;1.57;1.27;;;19.10;99.90;;;;;;5061390;28;20208;-83
2023/08/08 11:50:02;;;;;;;1.70;1.50;;;19.20;99.90;;;;;;5077734;28;20256;-83
2023/08/08 11:52:30;;;;;;;2.93;1.40;;;19.20;19.40;;;;;;5076524;28;20701;-83
2023/08/08 11:54:59;;;;;;;2.60;1.40;;;19.20;1.00;;;;;;5059632;28;20212;-84
2023/08/08 11:57:25;;;;;;;2.23;1.50;;;19.20;1.00;;;;;;5059308;28;20225;-82
2023/08/08 11:59:57;;;;;;;1.47;1.20;;;19.00;1.00;;;;;;5058953;28;20601;-82
2023/08/08 12:02:23;;;;;;;2.13;1.30;;;19.10;99.90;;;;;;5076766;28;20173;-83
2023/08/08 12:04:49;;;;;;;2.07;1.43;;;19.10;99.90;;;;;;5076850;28;20176;-82
2023/08/08 12:07:16;;;;;;;1.63;1.30;;;19.10;1.00;;;;;;5058595;28;20214;-82
2023/08/08 12:09:42;;;;;;;4.33;1.33;;;18.90;99.90;;;;;;5076420;28;20183;-83
2023/08/08 12:12:08;;;;;;;1.40;1.30;;;18.80;99.90;;;;;;5058244;28;20264;-82
2023/08/08 12:14:42;;;;;;;2.40;1.30;;;18.50;99.90;;;;;;5058055;28;20193;-83
2023/08/08 12:17:09;;;;;;;2.77;1.50;;;18.50;99.90;;;;;;5058206;28;20209;-82
2023/08/08 12:19:34;;;;;;;2.37;1.20;;;18.30;99.90;;;;;;5075999;28;20208;-83
2023/08/08 12:22:00;;;;;;;1.97;1.40;;;18.20;99.90;;;;;;5075523;28;20188;-82
2023/08/08 12:24:25;;;;;;;2.50;1.27;;;18.00;99.90;;;;;;5045381;28;20256;-83
2023/08/08 12:26:51;;;;;;;4.37;1.40;;;17.80;99.90;;;;;;5075881;28;20676;-82
2023/08/08 12:29:17;;;;;;;3.07;1.40;;;17.80;99.90;;;;;;5057106;28;20345;-82
2023/08/08 12:31:42;;;;;;;2.00;1.40;;;17.80;99.90;;;;;;5070192;28;20180;-82
2023/08/08 12:34:08;;;;;;;2.27;1.40;;;17.70;99.90;;;;;;5057969;28;20688;-82
2023/08/08 12:36:34;;;;;;;2.23;1.50;;;17.60;99.90;;;;;;5075631;28;20173;-82
2023/08/08 12:39:00;;;;;;;2.83;1.60;;;17.60;99.90;;;;;;5057738;28;20180;-82
2023/08/08 12:41:25;;;;;;;1.93;1.40;;;17.60;1.00;;;;;;5058010;28;20180;-83
2023/08/08 12:43:52;;;;;;;2.10;1.40;;;17.60;1.00;;;;;;5073353;28;20275;-84
2023/08/08 12:46:17;;;;;;;3.10;1.60;;;17.60;1.00;;;;;;5074257;28;20181;-83